Accueil
METAR-TAF:

METAR-TAF

Aéroports :

Aéroport de Salalah

Salalah, Oman

latitude: 17-02N, longitude: 054-05E, altitude: 20 m

Observation

Le bulletin a été fait il y a 42 minutes, à 18:50 UTC
Vent 9 kt de sud
Température 27°C
Humidité 79%
Pression 1011 hPa
Visibilité 10 km ou plus
Nuages fragmentés à une hauteur de 2500 ft

METAR: OOSA 291850Z 18009KT 9999 BKN025 27/23 Q1011 NOSIG

Heure: 23:32 (19:32 UTC)

Prévision

Le bulletin a été fait il y a 8 heures et 32 minutes, à 11:00 UTC
Prévision valable du 29 à 12 UTC au 30 à 18 UTC
Vent 11 kt de sud
Visibilité 10 km ou plus
Nuages épars à une hauteur de 2500 ft
Evoluant progressivement
du 29 à 15 UTC au 29 à 17 UTC
Nuages fragmentés à une hauteur de 2500 ft
Evoluant progressivement
du 30 à 06 UTC au 30 à 08 UTC
Nuages épars à une hauteur de 2500 ft

TAF: OOSA 291100Z 2912/3018 19011KT 9999 SCT025 BECMG 2915/2917 BKN025 BECMG 3006/3008 SCT025

Observations et prévisions météorologiques de plus de 4000 aéroports (messages METAR et TAF).

Les stations disponibles sont représentées par des disques jaunes et rouges sur la carte.

Passer la souris dessus pour voir le nom de la station.

Cliquer dessus pour voir les observations et prévisions météorologiques.

Pour changer de carte: cliquez sur les boutons verts avec une croix noire pour zoomer, sur le bouton vert avec un tiret pour effectuer un zoom arrière, ou sur les flèches vertes pour les cartes adjacentes.


METAR-TAF: